Time;durP1;ratioP1;P1;durP2;ratioP2;P2;SDS_P1;SDS_P2;PMS_P1;PMS_P2;Temp;Humidity;BMP_temperature;BMP_pressure;BME280_temperature;BME280_humidity;BME280_pressure;Samples;Min_cycle;Max_cycle;Signal;HPM_P1;HPM_P2
2022/11/22 00:01:38;;;;;;;15.13;8.50;;;1.30;99.90;;;;;;5010350;28;20210;-61
2022/11/22 00:04:05;;;;;;;19.27;8.83;;;1.30;99.90;;;;;;5016168;28;20731;-62
2022/11/22 00:06:32;;;;;;;15.97;8.70;;;1.30;99.90;;;;;;5011714;28;20205;-62
2022/11/22 00:08:59;;;;;;;18.63;9.23;;;1.30;99.90;;;;;;5024305;28;21210;-61
2022/11/22 00:11:25;;;;;;;13.13;8.07;;;1.30;99.90;;;;;;5022457;28;20232;-62
2022/11/22 00:13:53;;;;;;;16.60;8.30;;;1.30;99.90;;;;;;5008441;28;20238;-62
2022/11/22 00:16:20;;;;;;;13.77;8.50;;;1.30;99.90;;;;;;4992489;28;20209;-61
2022/11/22 00:18:47;;;;;;;15.60;7.23;;;1.20;99.90;;;;;;5012319;28;21200;-62
2022/11/22 00:21:14;;;;;;;15.13;7.70;;;1.30;99.90;;;;;;5009520;28;21124;-62
2022/11/22 00:23:40;;;;;;;11.83;8.10;;;1.30;99.90;;;;;;5027061;28;20206;-61
2022/11/22 00:26:10;;;;;;;16.83;8.03;;;1.20;99.90;;;;;;5016312;28;20205;-62
2022/11/22 00:28:37;;;;;;;11.80;7.60;;;1.20;99.90;;;;;;5005874;28;20843;-62
2022/11/22 00:31:05;;;;;;;14.23;8.20;;;1.20;99.90;;;;;;4992507;28;20210;-62
2022/11/22 00:33:32;;;;;;;13.03;8.17;;;1.20;99.90;;;;;;5020546;28;20233;-61
2022/11/22 00:35:59;;;;;;;13.87;7.67;;;1.20;99.90;;;;;;5011183;28;20205;-61
2022/11/22 00:38:26;;;;;;;15.00;8.03;;;1.20;99.90;;;;;;5022495;28;20792;-61
2022/11/22 00:40:52;;;;;;;14.10;8.30;;;1.20;99.90;;;;;;5016446;28;23950;-62
2022/11/22 00:43:19;;;;;;;18.67;9.17;;;1.10;99.90;;;;;;5010622;28;20224;-61
2022/11/22 00:45:46;;;;;;;14.00;7.53;;;1.10;99.90;;;;;;4996170;28;20233;-61
2022/11/22 00:48:14;;;;;;;11.33;7.80;;;1.10;99.90;;;;;;5015149;28;20198;-62
2022/11/22 00:50:41;;;;;;;12.87;8.30;;;1.20;99.90;;;;;;5013322;28;20229;-61
2022/11/22 00:53:08;;;;;;;12.93;7.30;;;1.10;99.90;;;;;;5020923;28;20232;-62
2022/11/22 00:55:35;;;;;;;12.37;7.63;;;1.20;99.90;;;;;;5012607;28;20218;-61
2022/11/22 00:58:02;;;;;;;17.73;8.60;;;1.20;99.90;;;;;;5022651;28;21000;-63
2022/11/22 01:00:29;;;;;;;15.03;8.63;;;1.20;99.90;;;;;;4986005;28;20783;-62
2022/11/22 01:02:55;;;;;;;14.00;7.57;;;1.20;99.90;;;;;;5011058;28;20237;-62
2022/11/22 01:05:23;;;;;;;13.90;8.00;;;1.70;99.90;;;;;;5014914;28;20202;-62
2022/11/22 01:07:50;;;;;;;14.10;7.63;;;1.20;99.90;;;;;;5023034;28;20311;-62
2022/11/22 01:10:17;;;;;;;14.50;7.90;;;1.20;99.90;;;;;;5010896;28;20899;-61
2022/11/22 01:12:44;;;;;;;12.63;8.10;;;1.20;99.90;;;;;;5027421;28;20225;-61
2022/11/22 01:15:11;;;;;;;14.43;8.03;;;1.20;99.90;;;;;;5017172;28;20213;-61
2022/11/22 01:17:38;;;;;;;14.97;8.30;;;1.20;99.90;;;;;;4977749;28;20216;-62
2022/11/22 01:20:06;;;;;;;14.37;7.60;;;1.20;99.90;;;;;;5029928;28;20196;-62
2022/11/22 01:22:34;;;;;;;13.50;8.03;;;1.30;99.90;;;;;;5007379;28;20222;-62
2022/11/22 01:25:01;;;;;;;14.23;8.47;;;1.30;99.90;;;;;;5031136;28;20217;-61
2022/11/22 01:27:27;;;;;;;14.20;7.13;;;1.30;99.90;;;;;;5026765;28;20206;-62
2022/11/22 01:29:54;;;;;;;16.37;7.63;;;1.30;99.90;;;;;;5017943;28;20206;-61
2022/11/22 01:32:21;;;;;;;17.03;8.37;;;1.30;99.90;;;;;;4999584;28;20240;-62
2022/11/22 01:34:48;;;;;;;17.03;8.97;;;1.30;99.90;;;;;;5018319;28;20220;-62
2022/11/22 01:37:15;;;;;;;17.77;9.20;;;1.30;99.90;;;;;;5013584;28;20218;-62
2022/11/22 01:39:43;;;;;;;15.83;8.77;;;1.30;99.90;;;;;;5014638;28;20618;-62
2022/11/22 01:42:11;;;;;;;14.57;8.63;;;1.30;99.90;;;;;;5021685;28;20230;-62
2022/11/22 01:44:41;;;;;;;13.67;8.37;;;1.30;99.90;;;;;;5012703;28;20207;-62
2022/11/22 01:47:12;;;;;;;12.53;7.83;;;1.30;99.90;;;;;;4995633;28;20225;-62
2022/11/22 01:49:42;;;;;;;15.23;8.83;;;1.30;99.90;;;;;;5023935;28;20226;-61
2022/11/22 01:52:14;;;;;;;14.27;8.17;;;1.30;99.90;;;;;;5011810;28;20226;-62
2022/11/22 01:54:45;;;;;;;15.93;8.67;;;1.30;99.90;;;;;;5014285;28;20225;-61
2022/11/22 01:57:17;;;;;;;13.43;8.77;;;1.30;99.90;;;;;;5022565;28;20204;-61
2022/11/22 01:59:48;;;;;;;15.27;9.13;;;1.30;99.90;;;;;;5021109;28;20210;-61
2022/11/22 02:02:15;;;;;;;18.97;8.90;;;1.30;99.90;;;;;;5011258;28;20215;-61
2022/11/22 02:04:43;;;;;;;18.30;9.00;;;1.30;99.90;;;;;;4998451;28;20199;-61
2022/11/22 02:07:16;;;;;;;15.33;9.03;;;1.30;99.90;;;;;;5018615;28;20300;-61
2022/11/22 02:09:46;;;;;;;16.07;9.33;;;1.30;99.90;;;;;;5001958;28;20299;-61
2022/11/22 02:12:15;;;;;;;16.70;9.67;;;1.40;99.90;;;;;;5024624;28;20232;-61
2022/11/22 02:14:44;;;;;;;17.30;8.87;;;1.30;99.90;;;;;;5022424;28;20214;-61
2022/11/22 02:17:10;;;;;;;18.70;9.07;;;1.40;99.90;;;;;;5009050;28;20213;-62
2022/11/22 02:19:41;;;;;;;20.80;10.00;;;1.40;99.90;;;;;;4998063;28;20578;-61
2022/11/22 02:22:19;;;;;;;17.57;9.57;;;1.40;99.90;;;;;;5018569;28;20952;-62
2022/11/22 02:24:55;;;;;;;17.80;9.07;;;1.40;99.90;;;;;;5007741;28;20672;-61
2022/11/22 02:27:23;;;;;;;20.10;10.03;;;1.30;99.90;;;;;;5018553;28;20214;-61
2022/11/22 02:29:50;;;;;;;20.40;10.20;;;1.40;99.90;;;;;;5025547;28;20247;-62
2022/11/22 02:32:17;;;;;;;18.63;9.67;;;1.40;99.90;;;;;;5005021;28;20230;-61
2022/11/22 02:34:45;;;;;;;20.37;9.40;;;1.30;99.90;;;;;;5000371;28;20995;-61
2022/11/22 02:37:17;;;;;;;21.40;10.47;;;1.40;99.90;;;;;;5013433;28;20212;-61
2022/11/22 02:39:47;;;;;;;20.40;10.17;;;1.40;99.90;;;;;;5014386;28;20209;-61
2022/11/22 02:42:14;;;;;;;21.60;9.90;;;1.40;99.90;;;;;;5023917;28;20205;-62
2022/11/22 02:44:42;;;;;;;23.63;10.33;;;1.40;99.90;;;;;;5022517;28;20302;-62
2022/11/22 02:47:09;;;;;;;23.03;10.60;;;1.40;99.90;;;;;;5017452;28;20196;-62
2022/11/22 02:49:36;;;;;;;21.33;10.57;;;1.40;99.90;;;;;;5012827;28;20238;-61
2022/11/22 02:52:03;;;;;;;22.50;10.50;;;1.50;99.90;;;;;;4983282;28;20701;-62
2022/11/22 02:54:29;;;;;;;22.93;10.13;;;1.40;99.90;;;;;;5003932;28;20217;-61
2022/11/22 02:56:56;;;;;;;19.10;10.00;;;1.50;99.90;;;;;;5020282;28;20211;-62
2022/11/22 02:59:23;;;;;;;18.37;10.47;;;1.50;99.90;;;;;;5021131;28;20214;-61
2022/11/22 03:01:51;;;;;;;21.53;9.90;;;1.50;99.90;;;;;;5019994;28;20204;-63
2022/11/22 03:04:24;;;;;;;20.77;10.90;;;1.50;99.90;;;;;;5014118;28;20211;-62
2022/11/22 03:06:52;;;;;;;28.23;11.37;;;1.50;99.90;;;;;;4988715;28;20207;-61
2022/11/22 03:09:19;;;;;;;22.10;10.67;;;1.50;99.90;;;;;;4989491;28;20672;-62
2022/11/22 03:11:46;;;;;;;21.87;10.77;;;1.50;99.90;;;;;;5006665;28;20209;-61
2022/11/22 03:14:14;;;;;;;21.37;11.37;;;1.60;99.90;;;;;;4999814;28;20198;-61
2022/11/22 03:16:41;;;;;;;25.63;11.17;;;1.60;99.90;;;;;;5021644;28;20201;-61
2022/11/22 03:19:09;;;;;;;25.40;11.57;;;1.60;99.90;;;;;;5025835;28;20677;-62
2022/11/22 03:21:37;;;;;;;27.70;11.67;;;1.60;99.90;;;;;;5003641;28;20211;-62
2022/11/22 03:24:04;;;;;;;24.07;10.50;;;1.60;99.90;;;;;;5008369;28;20216;-62
2022/11/22 03:26:31;;;;;;;26.20;10.80;;;1.60;99.90;;;;;;5012955;28;20217;-61
2022/11/22 03:28:58;;;;;;;32.50;12.50;;;1.70;99.90;;;;;;5016934;28;20200;-62
2022/11/22 03:31:25;;;;;;;24.97;12.17;;;1.70;99.90;;;;;;5023895;28;20194;-62
2022/11/22 03:33:51;;;;;;;24.50;10.90;;;1.70;99.90;;;;;;5023815;28;20986;-61
2022/11/22 03:36:20;;;;;;;29.30;12.07;;;1.70;99.90;;;;;;5015081;28;20703;-62
2022/11/22 03:38:46;;;;;;;26.93;11.20;;;1.70;99.90;;;;;;4991439;28;20206;-62
2022/11/22 03:41:13;;;;;;;24.83;11.30;;;1.70;99.90;;;;;;5013101;28;20206;-62
2022/11/22 03:43:40;;;;;;;26.27;11.03;;;1.70;99.90;;;;;;5007980;28;20214;-62
2022/11/22 03:46:12;;;;;;;27.63;11.90;;;1.60;99.90;;;;;;5020456;28;20587;-62
2022/11/22 03:48:39;;;;;;;23.57;11.30;;;1.70;99.90;;;;;;5024195;28;20230;-61
2022/11/22 03:51:06;;;;;;;22.73;10.40;;;1.80;99.90;;;;;;5020700;28;20199;-63
2022/11/22 03:53:35;;;;;;;22.33;11.73;;;1.80;99.90;;;;;;4986419;28;20226;-62
2022/11/22 03:56:01;;;;;;;25.20;11.53;;;1.80;99.90;;;;;;5014233;28;20882;-62
2022/11/22 03:58:28;;;;;;;23.93;11.10;;;1.80;99.90;;;;;;5024963;28;20202;-62
2022/11/22 04:00:56;;;;;;;20.10;10.23;;;1.90;99.90;;;;;;5010358;28;20194;-62
2022/11/22 04:03:24;;;;;;;23.23;11.10;;;1.80;99.90;;;;;;5023585;28;20209;-62
2022/11/22 04:05:51;;;;;;;23.93;11.60;;;1.90;99.90;;;;;;5022611;28;20191;-62
2022/11/22 04:08:18;;;;;;;25.20;11.40;;;1.90;99.90;;;;;;4977623;28;20214;-62
2022/11/22 04:10:47;;;;;;;30.37;11.73;;;1.90;99.90;;;;;;5020686;28;20205;-62
2022/11/22 04:13:15;;;;;;;25.60;11.13;;;2.00;99.90;;;;;;4992109;28;20226;-63
2022/11/22 04:15:40;;;;;;;27.00;11.57;;;2.00;99.90;;;;;;5019026;28;20213;-62
2022/11/22 04:18:09;;;;;;;22.10;10.63;;;2.00;99.90;;;;;;5020720;28;20200;-62
2022/11/22 04:23:23;;;;;;;23.50;11.17;;;2.00;99.90;;;;;;4980984;28;20346;-62
2022/11/22 04:25:52;;;;;;;23.87;11.57;;;2.00;99.90;;;;;;5016814;28;20203;-62
2022/11/22 04:28:21;;;;;;;24.07;10.90;;;2.00;99.90;;;;;;5002964;28;20686;-62
2022/11/22 04:33:32;;;;;;;23.23;11.57;;;2.00;99.90;;;;;;5015292;28;20651;-62
2022/11/22 04:35:59;;;;;;;19.37;10.93;;;2.00;99.90;;;;;;5008175;28;20236;-62
2022/11/22 04:38:26;;;;;;;25.00;10.27;;;2.30;99.90;;;;;;4991099;28;21112;-62
2022/11/22 04:40:54;;;;;;;28.43;12.80;;;2.10;99.90;;;;;;5024509;28;20220;-62
2022/11/22 04:46:07;;;;;;;27.20;12.67;;;2.10;99.90;;;;;;5011416;28;20236;-62
2022/11/22 04:48:35;;;;;;;23.87;11.73;;;2.10;99.90;;;;;;5012729;28;20222;-62
2022/11/22 04:53:47;;;;;;;23.60;12.23;;;2.10;99.90;;;;;;5019584;28;20384;-63
2022/11/22 04:56:15;;;;;;;27.90;12.43;;;2.10;99.90;;;;;;5003206;28;20210;-62
2022/11/22 04:58:42;;;;;;;25.93;12.23;;;2.10;99.90;;;;;;5014441;28;20315;-62
2022/11/22 05:01:09;;;;;;;21.73;10.50;;;2.00;99.90;;;;;;5002167;28;20210;-62
2022/11/22 05:03:36;;;;;;;25.57;12.77;;;2.20;99.90;;;;;;5011549;23;20249;-62
2022/11/22 05:06:05;;;;;;;24.23;11.90;;;2.20;99.90;;;;;;5017064;28;20197;-62
2022/11/22 05:08:32;;;;;;;22.37;11.80;;;2.20;99.90;;;;;;5014403;28;20566;-63
2022/11/22 05:10:59;;;;;;;22.77;11.47;;;2.20;99.90;;;;;;4993190;28;20240;-62
2022/11/22 05:13:30;;;;;;;23.17;11.70;;;2.20;99.90;;;;;;5022785;28;20323;-62
2022/11/22 05:15:57;;;;;;;23.37;11.13;;;2.20;99.90;;;;;;5003617;28;20214;-63
2022/11/22 05:18:25;;;;;;;22.90;10.60;;;2.20;99.90;;;;;;5016419;28;20202;-62
2022/11/22 05:20:52;;;;;;;25.10;11.23;;;2.20;99.90;;;;;;5019387;28;20219;-62
2022/11/22 05:26:05;;;;;;;22.50;10.83;;;2.20;99.90;;;;;;4996618;28;20277;-63
2022/11/22 05:28:35;;;;;;;24.13;11.13;;;2.20;99.90;;;;;;5024586;28;20199;-62
2022/11/22 05:31:06;;;;;;;23.57;10.20;;;2.30;99.90;;;;;;5008242;28;20211;-63
2022/11/22 05:33:34;;;;;;;21.83;11.37;;;2.30;99.90;;;;;;5004836;28;20323;-62
2022/11/22 05:36:01;;;;;;;22.90;10.73;;;2.30;99.90;;;;;;4983546;28;20226;-62
2022/11/22 05:38:28;;;;;;;22.63;11.23;;;2.30;99.90;;;;;;4989281;28;20231;-62
2022/11/22 05:40:55;;;;;;;21.80;11.20;;;2.30;99.90;;;;;;4978111;28;20230;-62
2022/11/22 05:43:21;;;;;;;19.57;9.63;;;2.30;99.90;;;;;;5017422;28;20203;-62
2022/11/22 05:45:50;;;;;;;20.97;10.60;;;2.30;99.90;;;;;;4992812;28;21030;-63
2022/11/22 05:48:16;;;;;;;19.63;9.70;;;2.40;99.90;;;;;;5007408;28;20231;-62
2022/11/22 05:50:43;;;;;;;18.50;9.03;;;2.30;99.90;;;;;;4991247;28;20225;-62
2022/11/22 05:53:10;;;;;;;21.47;11.47;;;2.30;99.90;;;;;;4994197;28;20409;-63
2022/11/22 05:55:37;;;;;;;20.50;9.27;;;2.30;99.90;;;;;;5000401;28;20260;-62
2022/11/22 05:58:04;;;;;;;21.10;10.30;;;2.30;99.90;;;;;;4989568;28;20225;-62
2022/11/22 06:00:30;;;;;;;19.63;9.97;;;2.30;99.90;;;;;;4997081;28;20229;-63
2022/11/22 06:03:02;;;;;;;22.97;9.97;;;2.30;99.90;;;;;;5006008;28;20762;-63
2022/11/22 06:05:29;;;;;;;18.03;9.37;;;2.30;99.90;;;;;;4988218;28;20233;-63
2022/11/22 06:07:58;;;;;;;22.70;9.97;;;2.30;99.90;;;;;;5002894;28;20224;-62
2022/11/22 06:10:24;;;;;;;25.47;9.57;;;2.40;99.90;;;;;;5007058;28;20226;-63
2022/11/22 06:12:51;;;;;;;19.67;10.07;;;2.40;99.90;;;;;;4979488;28;20229;-63
2022/11/22 06:15:18;;;;;;;20.10;9.93;;;2.40;99.90;;;;;;5011710;28;20233;-64
2022/11/22 06:17:45;;;;;;;18.77;9.93;;;2.40;99.90;;;;;;5015475;28;20203;-62
2022/11/22 06:20:13;;;;;;;18.37;10.57;;;2.40;99.90;;;;;;5019259;28;20222;-62
2022/11/22 06:22:40;;;;;;;24.07;9.87;;;2.40;99.90;;;;;;5006239;28;20237;-63
2022/11/22 06:25:08;;;;;;;23.40;10.63;;;2.40;99.90;;;;;;5023604;28;20223;-63
2022/11/22 06:27:36;;;;;;;22.97;9.87;;;2.40;99.90;;;;;;5007614;28;21075;-62
2022/11/22 06:30:03;;;;;;;25.10;9.90;;;2.40;99.90;;;;;;5012535;28;20620;-63
2022/11/22 06:32:32;;;;;;;18.63;9.93;;;2.50;99.90;;;;;;5018331;28;20335;-62
2022/11/22 06:34:59;;;;;;;22.70;11.23;;;2.50;99.90;;;;;;5026558;28;20235;-63
2022/11/22 06:37:28;;;;;;;20.60;10.43;;;2.50;99.90;;;;;;5002233;28;20230;-64
2022/11/22 06:39:55;;;;;;;21.43;10.10;;;3.10;99.90;;;;;;5022775;28;20228;-63
2022/11/22 06:42:21;;;;;;;19.13;9.47;;;2.50;99.90;;;;;;5012389;28;20227;-62
2022/11/22 06:44:48;;;;;;;21.20;10.17;;;2.50;99.90;;;;;;4988656;28;20235;-63
2022/11/22 06:47:16;;;;;;;17.77;9.13;;;2.50;99.90;;;;;;5010384;28;20261;-63
2022/11/22 06:49:43;;;;;;;17.70;9.00;;;2.50;99.90;;;;;;5026600;28;20267;-62
2022/11/22 06:52:10;;;;;;;16.00;9.90;;;2.50;99.90;;;;;;5013076;28;20231;-63
2022/11/22 06:54:38;;;;;;;20.83;11.30;;;2.50;99.90;;;;;;5010353;28;20227;-62
2022/11/22 06:57:05;;;;;;;22.97;9.57;;;2.50;99.90;;;;;;5023247;28;20223;-62
2022/11/22 06:59:31;;;;;;;21.17;10.73;;;2.50;99.90;;;;;;4987291;28;20244;-63
2022/11/22 07:01:58;;;;;;;23.70;12.57;;;2.60;99.90;;;;;;5007336;28;20264;-62
2022/11/22 07:04:25;;;;;;;18.10;10.47;;;2.60;99.90;;;;;;5029431;28;20250;-63
2022/11/22 07:06:52;;;;;;;22.70;10.67;;;2.60;99.90;;;;;;4989755;28;20281;-62
2022/11/22 07:09:19;;;;;;;25.70;12.23;;;2.60;99.90;;;;;;5001462;28;20236;-63
2022/11/22 07:11:47;;;;;;;23.37;10.83;;;2.60;99.90;;;;;;5026257;28;20221;-62
2022/11/22 07:14:14;;;;;;;23.20;11.23;;;2.60;99.90;;;;;;5016752;28;20232;-63
2022/11/22 07:16:40;;;;;;;22.53;10.33;;;2.70;99.90;;;;;;4991913;28;20212;-62
2022/11/22 07:19:07;;;;;;;23.13;10.30;;;2.70;99.90;;;;;;5016053;28;20228;-62
2022/11/22 07:21:36;;;;;;;16.63;9.10;;;2.70;99.90;;;;;;5013893;28;20201;-63
2022/11/22 07:24:05;;;;;;;23.37;11.57;;;2.70;99.90;;;;;;5005864;28;20223;-63
2022/11/22 07:26:32;;;;;;;24.93;11.57;;;2.70;99.90;;;;;;5020790;28;21116;-63
2022/11/22 07:29:00;;;;;;;27.07;11.60;;;2.70;99.90;;;;;;5010619;28;20229;-63
2022/11/22 07:31:27;;;;;;;19.33;10.73;;;2.80;99.90;;;;;;4987937;28;20213;-63
2022/11/22 07:33:56;;;;;;;25.63;11.33;;;2.80;99.90;;;;;;5019180;28;20232;-63
2022/11/22 07:36:23;;;;;;;24.37;11.23;;;2.80;99.90;;;;;;5021170;28;20275;-63
2022/11/22 07:38:50;;;;;;;22.80;10.93;;;2.80;99.90;;;;;;5004561;28;20235;-62
2022/11/22 07:41:18;;;;;;;21.10;10.43;;;2.80;99.90;;;;;;5021430;28;20229;-62
2022/11/22 07:43:45;;;;;;;22.83;10.80;;;2.80;99.90;;;;;;5016765;28;20227;-63
2022/11/22 07:46:20;;;;;;;25.33;10.73;;;2.80;99.90;;;;;;4996013;28;20219;-63
2022/11/22 07:48:48;;;;;;;22.47;11.50;;;2.90;99.90;;;;;;5019115;28;20206;-63
2022/11/22 07:51:15;;;;;;;20.70;11.10;;;2.90;99.90;;;;;;5029852;28;20237;-62
2022/11/22 07:53:42;;;;;;;19.67;11.10;;;2.90;99.90;;;;;;5005459;28;20235;-63
2022/11/22 07:56:08;;;;;;;21.07;11.27;;;2.90;99.90;;;;;;5020153;28;20211;-63
2022/11/22 07:58:36;;;;;;;20.27;11.50;;;2.90;99.90;;;;;;5025165;28;20201;-63
2022/11/22 08:01:08;;;;;;;26.07;10.90;;;2.90;99.90;;;;;;4985902;28;20660;-63
2022/11/22 08:03:37;;;;;;;25.33;12.60;;;2.90;99.90;;;;;;5016900;28;20226;-63
2022/11/22 08:06:05;;;;;;;23.50;11.67;;;2.90;99.90;;;;;;5030209;28;20212;-63
2022/11/22 08:08:33;;;;;;;21.30;11.17;;;3.00;99.90;;;;;;4998574;28;20216;-63
2022/11/22 08:10:59;;;;;;;25.90;11.70;;;2.90;99.90;;;;;;5019724;28;20582;-63
2022/11/22 08:13:27;;;;;;;22.63;11.70;;;2.90;99.90;;;;;;5021900;28;20233;-63
2022/11/22 08:15:55;;;;;;;19.10;10.13;;;3.00;99.90;;;;;;4999105;28;20229;-63
2022/11/22 08:18:22;;;;;;;21.80;11.83;;;3.00;99.90;;;;;;5026797;28;20316;-63
2022/11/22 08:20:50;;;;;;;23.90;11.07;;;3.00;99.90;;;;;;5024880;28;20204;-63
2022/11/22 08:23:17;;;;;;;18.73;11.00;;;3.00;99.90;;;;;;5013095;28;20212;-63
2022/11/22 08:25:44;;;;;;;21.87;10.93;;;3.00;99.90;;;;;;5012083;28;20893;-63
2022/11/22 08:28:11;;;;;;;23.93;12.13;;;3.10;99.90;;;;;;5026823;28;20204;-63
2022/11/22 08:30:38;;;;;;;25.63;11.20;;;3.10;99.90;;;;;;5021844;28;20212;-64
2022/11/22 08:33:05;;;;;;;20.67;11.13;;;3.10;99.90;;;;;;5006766;28;20206;-63
2022/11/22 08:35:32;;;;;;;24.87;11.87;;;3.10;99.90;;;;;;5029311;28;20788;-64
2022/11/22 08:38:01;;;;;;;22.70;10.90;;;3.10;99.90;;;;;;5003909;28;20339;-61
2022/11/22 08:40:27;;;;;;;21.23;10.60;;;3.10;99.90;;;;;;5017246;28;20585;-61
2022/11/22 08:42:55;;;;;;;27.60;12.20;;;3.10;99.90;;;;;;5017050;28;20229;-60
2022/11/22 08:45:22;;;;;;;20.13;10.97;;;3.20;99.90;;;;;;5021873;28;20766;-61
2022/11/22 08:47:49;;;;;;;22.07;11.87;;;3.20;99.90;;;;;;4998723;28;20239;-62
2022/11/22 08:50:17;;;;;;;27.00;11.10;;;3.20;99.90;;;;;;5023709;28;20219;-62
2022/11/22 08:52:43;;;;;;;22.57;11.83;;;3.20;99.90;;;;;;5026653;28;20662;-62
2022/11/22 08:55:11;;;;;;;21.70;12.17;;;3.20;99.90;;;;;;5015768;28;20249;-65
2022/11/22 08:57:38;;;;;;;25.03;12.67;;;3.30;99.90;;;;;;5008492;28;20259;-61
2022/11/22 09:00:06;;;;;;;28.57;12.43;;;3.30;99.90;;;;;;5024216;28;20220;-61
2022/11/22 09:02:33;;;;;;;24.63;12.90;;;3.20;99.90;;;;;;5025614;28;20209;-62
2022/11/22 09:05:00;;;;;;;18.10;10.93;;;3.30;99.90;;;;;;4998619;28;20201;-61
2022/11/22 09:07:28;;;;;;;23.90;11.70;;;3.30;99.90;;;;;;5021815;28;20569;-61
2022/11/22 09:09:54;;;;;;;28.27;12.10;;;3.30;99.90;;;;;;5005469;28;20206;-61
2022/11/22 09:12:23;;;;;;;21.87;11.73;;;3.30;99.90;;;;;;5001217;28;20691;-62
2022/11/22 09:14:49;;;;;;;22.50;12.30;;;3.30;99.90;;;;;;5017601;28;20783;-62
2022/11/22 09:17:16;;;;;;;23.77;12.70;;;3.40;99.90;;;;;;5024919;28;20581;-62
2022/11/22 09:19:43;;;;;;;24.40;11.27;;;3.40;99.90;;;;;;4999529;28;20213;-62
2022/11/22 09:22:10;;;;;;;23.87;11.90;;;3.40;99.90;;;;;;5019699;28;20201;-62
2022/11/22 09:24:37;;;;;;;23.70;11.97;;;3.40;99.90;;;;;;5017076;28;20299;-62
2022/11/22 09:27:04;;;;;;;22.07;10.57;;;3.40;99.90;;;;;;5018792;28;20204;-62
2022/11/22 09:29:32;;;;;;;21.30;11.57;;;3.50;99.90;;;;;;5014804;28;20238;-62
2022/11/22 09:31:59;;;;;;;27.00;12.63;;;3.50;99.90;;;;;;5034618;28;20208;-62
2022/11/22 09:34:26;;;;;;;22.53;12.10;;;3.50;99.90;;;;;;5001939;28;20225;-62
2022/11/22 09:36:52;;;;;;;23.53;11.60;;;3.60;99.90;;;;;;5030202;28;20200;-62
2022/11/22 09:39:19;;;;;;;26.47;12.47;;;3.60;99.90;;;;;;5014225;28;20634;-62
2022/11/22 09:42:10;;;;;;;24.70;12.93;;;3.60;99.90;;;;;;5021475;28;20229;-62
2022/11/22 09:44:50;;;;;;;28.53;11.97;;;3.60;99.90;;;;;;5027078;28;20213;-62
2022/11/22 09:47:28;;;;;;;20.27;11.17;;;3.60;99.90;;;;;;5015687;28;20205;-63
2022/11/22 09:50:04;;;;;;;21.00;11.73;;;3.70;99.90;;;;;;4992877;28;20686;-62
2022/11/22 09:52:37;;;;;;;19.20;10.70;;;3.70;99.90;;;;;;5016568;28;20203;-62
2022/11/22 09:55:09;;;;;;;26.07;12.23;;;3.70;99.90;;;;;;5014350;28;20232;-63
2022/11/22 09:57:41;;;;;;;21.80;10.93;;;3.70;99.90;;;;;;5012358;28;21421;-63
2022/11/22 10:00:19;;;;;;;23.00;11.60;;;3.70;99.90;;;;;;5011405;28;20222;-64
2022/11/22 10:02:51;;;;;;;23.27;11.97;;;3.80;99.90;;;;;;5027060;28;20233;-63
2022/11/22 10:05:24;;;;;;;19.70;10.10;;;3.80;99.90;;;;;;5001744;28;20248;-63
2022/11/22 10:07:55;;;;;;;18.90;10.80;;;3.80;99.90;;;;;;5014440;28;20206;-63
2022/11/22 10:10:27;;;;;;;22.43;11.57;;;3.90;99.90;;;;;;5015222;28;20202;-63
2022/11/22 10:12:59;;;;;;;20.57;11.77;;;3.90;99.90;;;;;;5030802;28;20214;-64
2022/11/22 10:15:36;;;;;;;21.63;11.13;;;4.00;99.90;;;;;;5012581;28;20233;-64
2022/11/22 10:18:10;;;;;;;26.37;12.33;;;4.00;99.90;;;;;;5017159;28;20224;-63
2022/11/22 10:20:41;;;;;;;19.53;10.57;;;4.00;99.90;;;;;;5000774;28;20216;-64
2022/11/22 10:23:17;;;;;;;19.13;11.03;;;4.10;99.90;;;;;;5020720;28;20328;-63
2022/11/22 10:25:47;;;;;;;23.40;11.87;;;4.20;99.90;;;;;;5011496;28;23522;-63
2022/11/22 10:28:18;;;;;;;23.00;11.17;;;4.30;99.90;;;;;;5028972;28;20205;-63
2022/11/22 10:30:55;;;;;;;27.00;13.67;;;4.30;99.90;;;;;;5016669;28;20233;-63
2022/11/22 10:33:26;;;;;;;29.37;13.43;;;4.30;99.90;;;;;;5022660;28;20209;-63
2022/11/22 10:36:07;;;;;;;28.87;13.53;;;4.40;99.90;;;;;;4997162;28;20229;-63
2022/11/22 10:38:50;;;;;;;28.00;13.47;;;4.60;99.90;;;;;;5015829;28;20233;-63
2022/11/22 10:41:33;;;;;;;24.03;11.83;;;4.50;99.90;;;;;;5029662;28;20209;-61
2022/11/22 10:44:14;;;;;;;21.13;12.07;;;4.50;99.90;;;;;;5028483;28;20204;-62
2022/11/22 10:46:51;;;;;;;21.17;11.33;;;4.60;99.90;;;;;;5026095;28;20194;-62
2022/11/22 10:49:25;;;;;;;19.67;10.70;;;4.60;99.90;;;;;;5018025;28;20241;-61
2022/11/22 10:51:58;;;;;;;22.63;11.27;;;4.60;99.90;;;;;;5003822;28;20205;-63
2022/11/22 10:54:33;;;;;;;20.60;10.70;;;4.70;99.90;;;;;;5017115;28;20637;-63
2022/11/22 10:57:05;;;;;;;23.87;11.63;;;4.70;99.90;;;;;;4987763;28;20362;-63
2022/11/22 10:59:47;;;;;;;20.77;10.80;;;4.80;99.90;;;;;;5028733;28;20194;-64
2022/11/22 11:02:46;;;;;;;17.93;10.73;;;4.90;99.90;;;;;;5012011;28;20229;-64
2022/11/22 11:05:19;;;;;;;21.10;11.13;;;4.90;99.90;;;;;;5027718;28;20197;-63
2022/11/22 11:07:48;;;;;;;20.10;10.40;;;5.00;99.90;;;;;;4996885;28;20240;-63
2022/11/22 11:10:18;;;;;;;19.70;10.60;;;5.00;99.90;;;;;;5025741;28;20201;-63
2022/11/22 11:12:49;;;;;;;28.20;11.20;;;5.10;99.90;;;;;;5018254;28;20216;-63
2022/11/22 11:15:22;;;;;;;20.40;10.67;;;5.10;99.90;;;;;;5020496;28;20230;-63
2022/11/22 11:17:58;;;;;;;20.83;10.87;;;5.10;99.90;;;;;;5030960;28;20200;-63
2022/11/22 11:20:29;;;;;;;26.73;10.47;;;5.10;99.90;;;;;;5033712;28;20191;-63
2022/11/22 11:22:56;;;;;;;18.10;10.17;;;5.10;99.90;;;;;;5001776;28;20709;-63
2022/11/22 11:25:33;;;;;;;23.47;11.00;;;5.10;99.90;;;;;;5023677;28;20240;-63
2022/11/22 11:28:05;;;;;;;16.80;10.13;;;5.10;99.90;;;;;;5022445;28;20233;-63
2022/11/22 11:30:40;;;;;;;19.07;10.63;;;5.10;99.90;;;;;;5031212;28;20203;-63
2022/11/22 11:33:20;;;;;;;21.73;10.47;;;5.10;99.90;;;;;;5024765;28;20219;-62
2022/11/22 11:35:48;;;;;;;20.63;11.43;;;5.10;99.90;;;;;;5028676;28;20233;-64
2022/11/22 11:38:30;;;;;;;18.33;11.03;;;5.20;99.90;;;;;;4991310;28;20271;-63
2022/11/22 11:40:57;;;;;;;24.17;11.67;;;5.20;99.90;;;;;;5001773;28;20904;-65
2022/11/22 11:43:25;;;;;;;21.63;10.47;;;5.20;99.90;;;;;;5004494;28;20200;-63
2022/11/22 11:45:52;;;;;;;20.37;10.30;;;5.30;99.90;;;;;;5013343;28;20379;-63
2022/11/22 11:48:37;;;;;;;19.30;10.17;;;5.30;99.90;;;;;;5026708;28;20288;-65
2022/11/22 11:51:13;;;;;;;20.30;9.77;;;5.40;99.90;;;;;;5018801;28;20201;-63
2022/11/22 11:54:17;;;;;;;17.27;10.47;;;5.50;99.90;;;;;;4991080;28;20964;-63
2022/11/22 11:56:47;;;;;;;23.13;10.77;;;5.60;99.90;;;;;;4987078;28;20263;-62
2022/11/22 11:59:18;;;;;;;21.97;10.50;;;5.60;99.90;;;;;;5004434;28;20296;-63
2022/11/22 12:01:52;;;;;;;21.37;10.57;;;5.70;99.90;;;;;;5015793;28;20680;-63
2022/11/22 12:17:57;;;;;;;17.20;9.13;;;5.90;99.90;;;;;;4979301;28;20245;-63
2022/11/22 12:20:35;;;;;;;17.10;9.47;;;5.90;99.90;;;;;;4998139;28;20233;-63
2022/11/22 12:23:14;;;;;;;24.73;9.93;;;5.90;99.90;;;;;;4993321;28;20337;-63
2022/11/22 12:25:43;;;;;;;23.77;10.30;;;6.00;99.90;;;;;;4973921;28;20225;-63
2022/11/22 12:28:18;;;;;;;20.17;9.33;;;5.90;99.90;;;;;;4976527;28;24005;-63
2022/11/22 12:30:48;;;;;;;18.37;9.57;;;6.00;99.90;;;;;;4987989;28;20310;-63
2022/11/22 12:33:23;;;;;;;18.13;10.17;;;5.90;99.90;;;;;;4990507;28;20222;-63
2022/11/22 12:35:55;;;;;;;18.60;9.37;;;6.00;99.90;;;;;;4992629;28;20240;-62
2022/11/22 12:38:28;;;;;;;15.77;9.00;;;6.00;99.90;;;;;;5001743;28;20202;-63
2022/11/22 12:40:58;;;;;;;17.67;8.73;;;6.00;99.90;;;;;;4970030;28;20216;-62
2022/11/22 12:43:28;;;;;;;24.50;9.40;;;6.00;99.90;;;;;;4992914;28;20297;-63
2022/11/22 12:46:00;;;;;;;17.63;8.70;;;6.10;99.90;;;;;;4990508;23;20240;-62
2022/11/22 12:48:34;;;;;;;16.33;8.40;;;6.10;99.90;;;;;;4985637;28;20723;-63
2022/11/22 12:51:09;;;;;;;18.33;9.97;;;6.10;99.90;;;;;;4979258;28;20221;-64
2022/11/22 12:53:39;;;;;;;19.00;9.33;;;6.10;99.90;;;;;;4972509;28;20245;-64
2022/11/22 12:56:17;;;;;;;15.67;8.23;;;6.20;99.90;;;;;;4960238;28;20336;-63
2022/11/22 12:58:52;;;;;;;27.67;11.57;;;6.20;99.90;;;;;;4970765;28;22160;-64
2022/11/22 13:01:25;;;;;;;23.07;10.90;;;6.20;99.90;;;;;;4978002;28;20243;-64
2022/11/22 13:03:57;;;;;;;24.50;11.20;;;6.20;99.90;;;;;;4986015;28;20229;-64
2022/11/22 13:06:27;;;;;;;25.13;10.43;;;6.20;99.90;;;;;;5003706;28;20244;-63
2022/11/22 13:08:58;;;;;;;19.67;10.00;;;6.20;99.90;;;;;;4968208;28;21320;-63
2022/11/22 13:11:30;;;;;;;24.43;10.27;;;6.20;99.90;;;;;;4965467;28;20214;-64
2022/11/22 13:14:03;;;;;;;13.67;8.17;;;6.30;99.90;;;;;;4970523;28;20244;-64
2022/11/22 13:16:29;;;;;;;14.90;8.27;;;6.20;99.90;;;;;;4991354;28;20238;-64
2022/11/22 13:19:01;;;;;;;14.70;7.90;;;6.20;99.90;;;;;;4991746;28;20310;-64